Главная страница
METAR-TAF:

METAR-TAF

Аэропорты :

Вадсё, Норвегия

широта: 70-04N, долгота: 029-51E, высота над уровнем моря: 3 м

Текущие метеонаблюдения

Эта сводка был подготовлена 19 минут назад, в 15:50 UTC
Ветер 13 Узел от южный-юго-западный
Температура -2°C
Влажность 74%
Давление 999 hPa
Видимость 10 км и более
небольшая облачность на высоте 1500 фута
Отдельные облака на высоте 3500 фута

METAR: ENVD 151550Z 21013KT 9999 FEW015 SCT035 M02/M06 Q0999

Время: 17:09 (16:09 UTC)

Прогноз

Эта сводка был подготовлена 2 часа и 9 минут назад, в 14:00 UTC
Прогноз действительный с 15-го 15 UTC до 15-го 24 UTC
Ветер 12 Узел от юго-западный
Видимость 10 км и более
небольшая облачность на высоте 1500 фута
Рассеянная облачность на высоте 2500 фута

TAF: ENVD 151400Z 1515/1524 23012KT 9999 FEW015 BKN025

Метеонаблюдения и прогнозы для более 4000 аэропортов (сводки METAR и TAF).

Имеющиеся станции представлены на карте желтыми и красными точками.

Чтобы увидеть название станции, наведите на нее мышь.

Затем щелкните, чтобы увидеть метеонаблюдения и метеопрогнозы.

Управление картой: чтобы увеличить масштаб, щелкните зеленые кнопки с черным крестиком; чтобы уменьшить масштаб, щелкните зеленую кнопку с тире; для просмотра соседних карт щелкайте зеленые стрелки.


METAR-TAF: